sensor_id;sensor_type;location;lat;lon;timestamp;temperature;humidity
14555;DHT22;7364;50.870;4.722;2023-02-15T00:01:55;6.00;99.90
14555;DHT22;7364;50.870;4.722;2023-02-15T00:04:24;6.00;99.90
14555;DHT22;7364;50.870;4.722;2023-02-15T00:07:15;5.90;99.90
14555;DHT22;7364;50.870;4.722;2023-02-15T00:09:42;5.80;99.90
14555;DHT22;7364;50.870;4.722;2023-02-15T00:12:11;5.60;99.90
14555;DHT22;7364;50.870;4.722;2023-02-15T00:14:39;5.70;99.90
14555;DHT22;7364;50.870;4.722;2023-02-15T00:17:06;5.70;99.90
14555;DHT22;7364;50.870;4.722;2023-02-15T00:19:33;5.80;99.90
14555;DHT22;7364;50.870;4.722;2023-02-15T00:22:00;5.70;99.90
14555;DHT22;7364;50.870;4.722;2023-02-15T00:24:29;5.70;99.90
14555;DHT22;7364;50.870;4.722;2023-02-15T00:26:57;5.70;99.90
14555;DHT22;7364;50.870;4.722;2023-02-15T00:29:24;5.70;99.90
14555;DHT22;7364;50.870;4.722;2023-02-15T00:31:52;5.60;99.90
14555;DHT22;7364;50.870;4.722;2023-02-15T00:34:21;5.40;99.90
14555;DHT22;7364;50.870;4.722;2023-02-15T00:36:49;5.30;99.90
14555;DHT22;7364;50.870;4.722;2023-02-15T00:39:18;5.30;99.90
14555;DHT22;7364;50.870;4.722;2023-02-15T00:41:47;5.30;99.90
14555;DHT22;7364;50.870;4.722;2023-02-15T00:44:17;5.30;99.90
14555;DHT22;7364;50.870;4.722;2023-02-15T00:46:45;5.40;99.90
14555;DHT22;7364;50.870;4.722;2023-02-15T00:49:12;5.40;99.90
14555;DHT22;7364;50.870;4.722;2023-02-15T00:51:39;5.40;99.90
14555;DHT22;7364;50.870;4.722;2023-02-15T00:54:07;5.30;99.90
14555;DHT22;7364;50.870;4.722;2023-02-15T00:56:34;5.30;99.90
14555;DHT22;7364;50.870;4.722;2023-02-15T00:59:03;5.20;99.90
14555;DHT22;7364;50.870;4.722;2023-02-15T01:01:30;5.00;99.90
14555;DHT22;7364;50.870;4.722;2023-02-15T01:06:27;5.00;99.90
14555;DHT22;7364;50.870;4.722;2023-02-15T01:08:54;5.00;99.90
14555;DHT22;7364;50.870;4.722;2023-02-15T01:11:23;5.10;99.90
14555;DHT22;7364;50.870;4.722;2023-02-15T01:13:51;5.20;99.90
14555;DHT22;7364;50.870;4.722;2023-02-15T01:16:20;5.00;99.90
14555;DHT22;7364;50.870;4.722;2023-02-15T01:18:47;4.80;99.90
14555;DHT22;7364;50.870;4.722;2023-02-15T01:21:17;4.80;99.90
14555;DHT22;7364;50.870;4.722;2023-02-15T01:23:44;4.70;99.90
14555;DHT22;7364;50.870;4.722;2023-02-15T01:26:13;4.70;99.90
14555;DHT22;7364;50.870;4.722;2023-02-15T01:28:40;4.70;99.90
14555;DHT22;7364;50.870;4.722;2023-02-15T01:31:09;4.80;99.90
14555;DHT22;7364;50.870;4.722;2023-02-15T01:33:38;4.80;99.90
14555;DHT22;7364;50.870;4.722;2023-02-15T01:36:06;4.80;99.90
14555;DHT22;7364;50.870;4.722;2023-02-15T01:38:34;4.80;99.90
14555;DHT22;7364;50.870;4.722;2023-02-15T01:41:02;4.70;99.90
14555;DHT22;7364;50.870;4.722;2023-02-15T01:43:54;4.30;99.90
14555;DHT22;7364;50.870;4.722;2023-02-15T01:46:26;3.80;99.90
14555;DHT22;7364;50.870;4.722;2023-02-15T01:49:02;3.60;99.90
14555;DHT22;7364;50.870;4.722;2023-02-15T01:51:33;3.80;99.90
14555;DHT22;7364;50.870;4.722;2023-02-15T01:54:07;3.90;99.90
14555;DHT22;7364;50.870;4.722;2023-02-15T01:56:38;4.00;99.90
14555;DHT22;7364;50.870;4.722;2023-02-15T01:59:09;4.00;99.90
14555;DHT22;7364;50.870;4.722;2023-02-15T02:01:38;3.70;99.90
14555;DHT22;7364;50.870;4.722;2023-02-15T02:04:12;3.80;99.90
14555;DHT22;7364;50.870;4.722;2023-02-15T02:06:42;4.00;99.90
14555;DHT22;7364;50.870;4.722;2023-02-15T02:09:11;4.00;99.90
14555;DHT22;7364;50.870;4.722;2023-02-15T02:11:40;4.00;99.90
14555;DHT22;7364;50.870;4.722;2023-02-15T02:14:08;4.10;99.90
14555;DHT22;7364;50.870;4.722;2023-02-15T02:16:42;4.10;99.90
14555;DHT22;7364;50.870;4.722;2023-02-15T02:19:43;4.10;99.90
14555;DHT22;7364;50.870;4.722;2023-02-15T02:22:45;4.30;99.90
14555;DHT22;7364;50.870;4.722;2023-02-15T02:25:40;4.40;99.90
14555;DHT22;7364;50.870;4.722;2023-02-15T02:28:33;4.30;99.90
14555;DHT22;7364;50.870;4.722;2023-02-15T02:31:18;4.00;99.90
14555;DHT22;7364;50.870;4.722;2023-02-15T02:34:01;4.00;99.90
14555;DHT22;7364;50.870;4.722;2023-02-15T02:36:35;4.00;99.90
14555;DHT22;7364;50.870;4.722;2023-02-15T02:39:23;3.90;99.90
14555;DHT22;7364;50.870;4.722;2023-02-15T02:41:59;3.90;99.90
14555;DHT22;7364;50.870;4.722;2023-02-15T02:44:33;4.10;99.90
14555;DHT22;7364;50.870;4.722;2023-02-15T02:47:05;4.10;99.90
14555;DHT22;7364;50.870;4.722;2023-02-15T02:49:39;4.20;99.90
14555;DHT22;7364;50.870;4.722;2023-02-15T02:52:40;4.20;99.90
14555;DHT22;7364;50.870;4.722;2023-02-15T02:55:11;4.30;99.90
14555;DHT22;7364;50.870;4.722;2023-02-15T02:57:46;4.40;99.90
14555;DHT22;7364;50.870;4.722;2023-02-15T03:00:15;4.30;99.90
14555;DHT22;7364;50.870;4.722;2023-02-15T03:02:45;4.20;99.90
14555;DHT22;7364;50.870;4.722;2023-02-15T03:05:22;4.10;99.90
14555;DHT22;7364;50.870;4.722;2023-02-15T03:07:53;4.10;99.90
14555;DHT22;7364;50.870;4.722;2023-02-15T03:10:24;4.00;99.90
14555;DHT22;7364;50.870;4.722;2023-02-15T03:12:52;4.00;99.90
14555;DHT22;7364;50.870;4.722;2023-02-15T03:15:22;4.00;99.90
14555;DHT22;7364;50.870;4.722;2023-02-15T03:17:53;4.00;99.90
14555;DHT22;7364;50.870;4.722;2023-02-15T03:20:27;4.10;99.90
14555;DHT22;7364;50.870;4.722;2023-02-15T03:22:59;3.70;99.90
14555;DHT22;7364;50.870;4.722;2023-02-15T03:25:30;3.40;99.90
14555;DHT22;7364;50.870;4.722;2023-02-15T03:28:02;3.30;99.90
14555;DHT22;7364;50.870;4.722;2023-02-15T03:30:31;3.30;99.90
14555;DHT22;7364;50.870;4.722;2023-02-15T03:32:59;3.30;99.90
14555;DHT22;7364;50.870;4.722;2023-02-15T03:35:36;3.40;99.90
14555;DHT22;7364;50.870;4.722;2023-02-15T03:38:07;3.50;99.90
14555;DHT22;7364;50.870;4.722;2023-02-15T03:40:38;3.60;99.90
14555;DHT22;7364;50.870;4.722;2023-02-15T03:43:43;3.60;99.90
14555;DHT22;7364;50.870;4.722;2023-02-15T03:46:18;3.50;99.90
14555;DHT22;7364;50.870;4.722;2023-02-15T03:48:54;3.50;99.90
14555;DHT22;7364;50.870;4.722;2023-02-15T03:51:27;3.50;99.90
14555;DHT22;7364;50.870;4.722;2023-02-15T03:54:06;3.50;99.90
14555;DHT22;7364;50.870;4.722;2023-02-15T03:56:37;3.40;99.90
14555;DHT22;7364;50.870;4.722;2023-02-15T03:59:05;3.30;99.90
14555;DHT22;7364;50.870;4.722;2023-02-15T04:01:59;3.40;99.90
14555;DHT22;7364;50.870;4.722;2023-02-15T04:04:34;3.50;99.90
14555;DHT22;7364;50.870;4.722;2023-02-15T04:07:05;3.50;99.90
14555;DHT22;7364;50.870;4.722;2023-02-15T04:09:33;3.50;99.90
14555;DHT22;7364;50.870;4.722;2023-02-15T04:12:18;3.50;99.90
14555;DHT22;7364;50.870;4.722;2023-02-15T04:14:45;3.50;99.90
14555;DHT22;7364;50.870;4.722;2023-02-15T04:17:30;3.30;99.90
14555;DHT22;7364;50.870;4.722;2023-02-15T04:19:57;3.30;99.90
14555;DHT22;7364;50.870;4.722;2023-02-15T04:22:43;3.50;99.90
14555;DHT22;7364;50.870;4.722;2023-02-15T04:25:28;3.50;99.90
14555;DHT22;7364;50.870;4.722;2023-02-15T04:27:55;3.40;99.90
14555;DHT22;7364;50.870;4.722;2023-02-15T04:30:24;3.30;99.90
14555;DHT22;7364;50.870;4.722;2023-02-15T04:32:53;3.20;99.90
14555;DHT22;7364;50.870;4.722;2023-02-15T04:35:21;3.00;99.90
14555;DHT22;7364;50.870;4.722;2023-02-15T04:37:50;3.00;99.90
14555;DHT22;7364;50.870;4.722;2023-02-15T04:40:18;3.10;99.90
14555;DHT22;7364;50.870;4.722;2023-02-15T04:42:47;3.00;99.90
14555;DHT22;7364;50.870;4.722;2023-02-15T04:45:15;2.90;99.90
14555;DHT22;7364;50.870;4.722;2023-02-15T04:47:43;2.90;99.90
14555;DHT22;7364;50.870;4.722;2023-02-15T04:50:10;2.90;99.90
14555;DHT22;7364;50.870;4.722;2023-02-15T04:52:38;2.90;99.90
14555;DHT22;7364;50.870;4.722;2023-02-15T04:55:07;3.00;99.90
14555;DHT22;7364;50.870;4.722;2023-02-15T04:57:34;3.10;99.90
14555;DHT22;7364;50.870;4.722;2023-02-15T05:00:01;3.00;99.90
14555;DHT22;7364;50.870;4.722;2023-02-15T05:02:30;3.10;99.90
14555;DHT22;7364;50.870;4.722;2023-02-15T05:04:57;3.00;99.90
14555;DHT22;7364;50.870;4.722;2023-02-15T05:07:25;3.00;99.90
14555;DHT22;7364;50.870;4.722;2023-02-15T05:09:52;3.20;99.90
14555;DHT22;7364;50.870;4.722;2023-02-15T05:12:21;3.00;99.90
14555;DHT22;7364;50.870;4.722;2023-02-15T05:14:48;3.00;99.90
14555;DHT22;7364;50.870;4.722;2023-02-15T05:17:15;3.00;99.90
14555;DHT22;7364;50.870;4.722;2023-02-15T05:19:43;3.00;99.90
14555;DHT22;7364;50.870;4.722;2023-02-15T05:22:10;3.00;99.90
14555;DHT22;7364;50.870;4.722;2023-02-15T05:24:38;3.10;99.90
14555;DHT22;7364;50.870;4.722;2023-02-15T05:27:24;3.20;99.90
14555;DHT22;7364;50.870;4.722;2023-02-15T05:30:10;3.10;99.90
14555;DHT22;7364;50.870;4.722;2023-02-15T05:32:38;3.10;99.90
14555;DHT22;7364;50.870;4.722;2023-02-15T05:35:05;3.10;99.90
14555;DHT22;7364;50.870;4.722;2023-02-15T05:37:33;2.90;99.90
14555;DHT22;7364;50.870;4.722;2023-02-15T05:40:00;2.90;99.90
14555;DHT22;7364;50.870;4.722;2023-02-15T05:42:29;2.90;99.90
14555;DHT22;7364;50.870;4.722;2023-02-15T05:44:56;2.80;99.90
14555;DHT22;7364;50.870;4.722;2023-02-15T05:47:23;2.80;99.90
14555;DHT22;7364;50.870;4.722;2023-02-15T05:49:51;2.80;99.90
14555;DHT22;7364;50.870;4.722;2023-02-15T05:52:18;3.00;99.90
14555;DHT22;7364;50.870;4.722;2023-02-15T05:54:45;3.10;99.90
14555;DHT22;7364;50.870;4.722;2023-02-15T05:57:12;3.10;99.90
14555;DHT22;7364;50.870;4.722;2023-02-15T05:59:41;3.10;99.90
14555;DHT22;7364;50.870;4.722;2023-02-15T06:02:08;3.00;99.90
14555;DHT22;7364;50.870;4.722;2023-02-15T06:04:35;3.00;99.90
14555;DHT22;7364;50.870;4.722;2023-02-15T06:07:04;3.10;99.90
14555;DHT22;7364;50.870;4.722;2023-02-15T06:09:31;3.00;99.90
14555;DHT22;7364;50.870;4.722;2023-02-15T06:11:58;2.90;99.90
14555;DHT22;7364;50.870;4.722;2023-02-15T06:14:25;3.00;99.90
14555;DHT22;7364;50.870;4.722;2023-02-15T06:16:54;3.00;99.90
14555;DHT22;7364;50.870;4.722;2023-02-15T06:19:22;3.10;99.90
14555;DHT22;7364;50.870;4.722;2023-02-15T06:21:49;3.10;99.90
14555;DHT22;7364;50.870;4.722;2023-02-15T06:24:17;3.10;99.90
14555;DHT22;7364;50.870;4.722;2023-02-15T06:26:44;3.10;99.90
14555;DHT22;7364;50.870;4.722;2023-02-15T06:29:11;3.10;99.90
14555;DHT22;7364;50.870;4.722;2023-02-15T06:31:38;3.00;99.90
14555;DHT22;7364;50.870;4.722;2023-02-15T06:34:07;3.10;99.90
14555;DHT22;7364;50.870;4.722;2023-02-15T06:36:34;3.00;99.90
14555;DHT22;7364;50.870;4.722;2023-02-15T06:39:02;3.00;99.90
14555;DHT22;7364;50.870;4.722;2023-02-15T06:41:30;3.00;99.90
14555;DHT22;7364;50.870;4.722;2023-02-15T06:43:57;3.00;99.90
14555;DHT22;7364;50.870;4.722;2023-02-15T06:46:25;3.00;99.90
14555;DHT22;7364;50.870;4.722;2023-02-15T06:48:52;3.10;99.90
14555;DHT22;7364;50.870;4.722;2023-02-15T06:51:21;3.20;99.90
14555;DHT22;7364;50.870;4.722;2023-02-15T06:53:48;3.10;99.90
14555;DHT22;7364;50.870;4.722;2023-02-15T06:56:15;2.90;99.90
14555;DHT22;7364;50.870;4.722;2023-02-15T06:58:43;2.80;99.90
14555;DHT22;7364;50.870;4.722;2023-02-15T07:01:12;2.60;99.90
14555;DHT22;7364;50.870;4.722;2023-02-15T07:03:40;2.50;99.90
14555;DHT22;7364;50.870;4.722;2023-02-15T07:06:07;2.70;99.90
14555;DHT22;7364;50.870;4.722;2023-02-15T07:08:38;2.80;99.90
14555;DHT22;7364;50.870;4.722;2023-02-15T07:11:06;2.80;99.90
14555;DHT22;7364;50.870;4.722;2023-02-15T07:13:51;2.70;99.90
14555;DHT22;7364;50.870;4.722;2023-02-15T07:16:19;3.00;99.90
14555;DHT22;7364;50.870;4.722;2023-02-15T07:18:46;3.00;99.90
14555;DHT22;7364;50.870;4.722;2023-02-15T07:21:14;3.00;99.90
14555;DHT22;7364;50.870;4.722;2023-02-15T07:23:42;3.10;99.90
14555;DHT22;7364;50.870;4.722;2023-02-15T07:26:10;3.20;99.90
14555;DHT22;7364;50.870;4.722;2023-02-15T07:28:37;3.10;99.90
14555;DHT22;7364;50.870;4.722;2023-02-15T07:31:06;3.10;99.90
14555;DHT22;7364;50.870;4.722;2023-02-15T07:33:34;3.00;99.90
14555;DHT22;7364;50.870;4.722;2023-02-15T07:36:03;3.00;99.90
14555;DHT22;7364;50.870;4.722;2023-02-15T07:38:33;3.10;99.90
14555;DHT22;7364;50.870;4.722;2023-02-15T07:41:06;3.40;99.90
14555;DHT22;7364;50.870;4.722;2023-02-15T07:43:36;3.30;99.90
14555;DHT22;7364;50.870;4.722;2023-02-15T07:46:05;3.20;99.90
14555;DHT22;7364;50.870;4.722;2023-02-15T07:48:34;3.40;99.90
14555;DHT22;7364;50.870;4.722;2023-02-15T07:51:03;3.30;99.90
14555;DHT22;7364;50.870;4.722;2023-02-15T07:53:31;3.30;99.90
14555;DHT22;7364;50.870;4.722;2023-02-15T07:55:59;3.20;99.90
14555;DHT22;7364;50.870;4.722;2023-02-15T07:58:28;3.20;99.90
14555;DHT22;7364;50.870;4.722;2023-02-15T08:01:10;3.20;99.90
14555;DHT22;7364;50.870;4.722;2023-02-15T08:03:38;3.20;99.90
14555;DHT22;7364;50.870;4.722;2023-02-15T08:06:06;3.50;99.90
14555;DHT22;7364;50.870;4.722;2023-02-15T08:08:34;3.60;99.90
14555;DHT22;7364;50.870;4.722;2023-02-15T08:11:03;3.80;99.90
14555;DHT22;7364;50.870;4.722;2023-02-15T08:13:52;3.80;99.90
14555;DHT22;7364;50.870;4.722;2023-02-15T08:16:29;4.10;99.90
14555;DHT22;7364;50.870;4.722;2023-02-15T08:18:59;4.20;99.90
14555;DHT22;7364;50.870;4.722;2023-02-15T08:21:30;4.40;99.90
14555;DHT22;7364;50.870;4.722;2023-02-15T08:23:58;4.50;99.90
14555;DHT22;7364;50.870;4.722;2023-02-15T08:26:26;4.60;99.90
14555;DHT22;7364;50.870;4.722;2023-02-15T08:28:55;4.60;99.90
14555;DHT22;7364;50.870;4.722;2023-02-15T08:31:26;4.80;99.90
14555;DHT22;7364;50.870;4.722;2023-02-15T08:33:55;4.90;99.90
14555;DHT22;7364;50.870;4.722;2023-02-15T08:36:27;4.90;99.90
14555;DHT22;7364;50.870;4.722;2023-02-15T08:38:58;5.00;99.90
14555;DHT22;7364;50.870;4.722;2023-02-15T08:41:26;5.10;99.90
14555;DHT22;7364;50.870;4.722;2023-02-15T08:43:58;4.80;99.90
14555;DHT22;7364;50.870;4.722;2023-02-15T08:46:27;4.90;99.90
14555;DHT22;7364;50.870;4.722;2023-02-15T08:48:56;4.90;99.90
14555;DHT22;7364;50.870;4.722;2023-02-15T08:51:25;5.00;99.90
14555;DHT22;7364;50.870;4.722;2023-02-15T08:53:54;5.10;99.90
14555;DHT22;7364;50.870;4.722;2023-02-15T08:56:23;5.10;99.90
14555;DHT22;7364;50.870;4.722;2023-02-15T08:58:52;5.10;99.90
14555;DHT22;7364;50.870;4.722;2023-02-15T09:01:22;5.20;99.90
14555;DHT22;7364;50.870;4.722;2023-02-15T09:03:54;5.40;99.90
14555;DHT22;7364;50.870;4.722;2023-02-15T09:06:23;5.50;99.90
14555;DHT22;7364;50.870;4.722;2023-02-15T09:08:51;5.50;99.90
14555;DHT22;7364;50.870;4.722;2023-02-15T09:11:23;5.70;99.90
14555;DHT22;7364;50.870;4.722;2023-02-15T09:13:53;6.00;99.90
14555;DHT22;7364;50.870;4.722;2023-02-15T09:16:24;6.30;99.90
14555;DHT22;7364;50.870;4.722;2023-02-15T09:18:52;6.50;99.90
14555;DHT22;7364;50.870;4.722;2023-02-15T09:21:21;6.80;99.90
14555;DHT22;7364;50.870;4.722;2023-02-15T09:23:51;6.90;99.90
14555;DHT22;7364;50.870;4.722;2023-02-15T09:26:20;7.20;99.90
14555;DHT22;7364;50.870;4.722;2023-02-15T09:28:52;7.20;99.90
14555;DHT22;7364;50.870;4.722;2023-02-15T09:31:24;7.80;99.90
14555;DHT22;7364;50.870;4.722;2023-02-15T09:33:52;8.20;99.90
14555;DHT22;7364;50.870;4.722;2023-02-15T09:36:21;8.70;99.90
14555;DHT22;7364;50.870;4.722;2023-02-15T09:38:55;8.90;99.90
14555;DHT22;7364;50.870;4.722;2023-02-15T09:41:50;9.50;99.90
14555;DHT22;7364;50.870;4.722;2023-02-15T09:44:32;9.50;99.90
14555;DHT22;7364;50.870;4.722;2023-02-15T09:47:26;10.00;99.90
14555;DHT22;7364;50.870;4.722;2023-02-15T09:50:03;10.20;99.90
14555;DHT22;7364;50.870;4.722;2023-02-15T09:52:44;10.60;99.90
14555;DHT22;7364;50.870;4.722;2023-02-15T09:55:28;10.70;99.90
14555;DHT22;7364;50.870;4.722;2023-02-15T09:58:06;11.10;99.90
14555;DHT22;7364;50.870;4.722;2023-02-15T10:00:42;11.70;99.90
14555;DHT22;7364;50.870;4.722;2023-02-15T10:03:23;12.10;99.90
14555;DHT22;7364;50.870;4.722;2023-02-15T10:06:08;12.40;99.90
14555;DHT22;7364;50.870;4.722;2023-02-15T10:09:07;12.30;99.90
14555;DHT22;7364;50.870;4.722;2023-02-15T10:11:48;11.80;99.90
14555;DHT22;7364;50.870;4.722;2023-02-15T10:14:46;12.20;99.90
14555;DHT22;7364;50.870;4.722;2023-02-15T10:17:30;12.50;99.90
14555;DHT22;7364;50.870;4.722;2023-02-15T10:20:14;12.50;99.90
14555;DHT22;7364;50.870;4.722;2023-02-15T10:22:59;12.00;99.90
14555;DHT22;7364;50.870;4.722;2023-02-15T10:25:40;12.10;99.90
14555;DHT22;7364;50.870;4.722;2023-02-15T10:28:16;12.90;99.90
14555;DHT22;7364;50.870;4.722;2023-02-15T10:30:48;13.50;99.90
14555;DHT22;7364;50.870;4.722;2023-02-15T10:33:34;13.70;99.90
14555;DHT22;7364;50.870;4.722;2023-02-15T10:36:18;13.50;99.90
14555;DHT22;7364;50.870;4.722;2023-02-15T10:38:57;14.10;99.90
14555;DHT22;7364;50.870;4.722;2023-02-15T10:41:34;14.80;99.30
14555;DHT22;7364;50.870;4.722;2023-02-15T10:44:12;15.10;98.80
14555;DHT22;7364;50.870;4.722;2023-02-15T10:46:57;15.60;97.40
14555;DHT22;7364;50.870;4.722;2023-02-15T10:49:43;16.10;96.00
14555;DHT22;7364;50.870;4.722;2023-02-15T10:52:28;16.40;94.60
14555;DHT22;7364;50.870;4.722;2023-02-15T10:55:06;16.40;93.70
14555;DHT22;7364;50.870;4.722;2023-02-15T10:57:43;16.40;93.40
14555;DHT22;7364;50.870;4.722;2023-02-15T11:00:20;16.40;93.40
14555;DHT22;7364;50.870;4.722;2023-02-15T11:03:00;16.90;92.30
14555;DHT22;7364;50.870;4.722;2023-02-15T11:05:39;16.90;92.10
14555;DHT22;7364;50.870;4.722;2023-02-15T11:08:11;16.90;92.00
14555;DHT22;7364;50.870;4.722;2023-02-15T11:10:43;17.10;92.00
14555;DHT22;7364;50.870;4.722;2023-02-15T11:13:14;17.00;91.40
14555;DHT22;7364;50.870;4.722;2023-02-15T11:15:46;17.00;91.90
14555;DHT22;7364;50.870;4.722;2023-02-15T11:18:21;17.60;90.90
14555;DHT22;7364;50.870;4.722;2023-02-15T11:20:54;17.80;90.40
14555;DHT22;7364;50.870;4.722;2023-02-15T11:23:28;16.20;91.50
14555;DHT22;7364;50.870;4.722;2023-02-15T11:25:58;15.90;92.10
14555;DHT22;7364;50.870;4.722;2023-02-15T11:28:31;16.30;92.20
14555;DHT22;7364;50.870;4.722;2023-02-15T11:31:02;17.20;91.10
14555;DHT22;7364;50.870;4.722;2023-02-15T11:33:41;17.70;90.80
14555;DHT22;7364;50.870;4.722;2023-02-15T11:36:14;16.70;91.30
14555;DHT22;7364;50.870;4.722;2023-02-15T11:39:04;16.40;92.10
14555;DHT22;7364;50.870;4.722;2023-02-15T11:41:39;16.70;92.00
14555;DHT22;7364;50.870;4.722;2023-02-15T11:44:16;16.10;91.70
14555;DHT22;7364;50.870;4.722;2023-02-15T11:46:47;15.10;92.80
14555;DHT22;7364;50.870;4.722;2023-02-15T11:49:22;15.00;93.30
14555;DHT22;7364;50.870;4.722;2023-02-15T11:51:53;15.20;93.50
14555;DHT22;7364;50.870;4.722;2023-02-15T11:54:26;15.70;93.20
14555;DHT22;7364;50.870;4.722;2023-02-15T11:56:58;16.40;92.40
14555;DHT22;7364;50.870;4.722;2023-02-15T11:59:29;15.30;92.70
14555;DHT22;7364;50.870;4.722;2023-02-15T12:01:59;15.30;93.70
14555;DHT22;7364;50.870;4.722;2023-02-15T12:04:32;16.40;92.80
14555;DHT22;7364;50.870;4.722;2023-02-15T12:07:09;17.00;91.90
14555;DHT22;7364;50.870;4.722;2023-02-15T12:09:48;17.00;91.30
14555;DHT22;7364;50.870;4.722;2023-02-15T12:12:21;17.10;91.50
14555;DHT22;7364;50.870;4.722;2023-02-15T12:14:51;16.40;91.80
14555;DHT22;7364;50.870;4.722;2023-02-15T12:17:21;16.20;92.00
14555;DHT22;7364;50.870;4.722;2023-02-15T12:19:54;15.60;92.40
14555;DHT22;7364;50.870;4.722;2023-02-15T12:22:24;16.00;92.60
14555;DHT22;7364;50.870;4.722;2023-02-15T12:24:58;16.90;91.70
14555;DHT22;7364;50.870;4.722;2023-02-15T12:27:32;17.60;90.70
14555;DHT22;7364;50.870;4.722;2023-02-15T12:30:04;18.00;90.30
14555;DHT22;7364;50.870;4.722;2023-02-15T12:32:36;18.10;90.20
14555;DHT22;7364;50.870;4.722;2023-02-15T12:35:15;18.20;90.20
14555;DHT22;7364;50.870;4.722;2023-02-15T12:37:52;18.40;89.20
14555;DHT22;7364;50.870;4.722;2023-02-15T12:40:25;18.30;89.50
14555;DHT22;7364;50.870;4.722;2023-02-15T12:42:53;18.10;88.60
14555;DHT22;7364;50.870;4.722;2023-02-15T12:45:24;18.40;89.00
14555;DHT22;7364;50.870;4.722;2023-02-15T12:48:15;18.40;88.30
14555;DHT22;7364;50.870;4.722;2023-02-15T12:50:44;18.90;87.70
14555;DHT22;7364;50.870;4.722;2023-02-15T12:53:17;18.70;87.60
14555;DHT22;7364;50.870;4.722;2023-02-15T12:55:56;19.00;86.90
14555;DHT22;7364;50.870;4.722;2023-02-15T12:58:24;18.60;87.40
14555;DHT22;7364;50.870;4.722;2023-02-15T13:01:04;17.80;88.30
14555;DHT22;7364;50.870;4.722;2023-02-15T13:03:31;17.40;90.40
14555;DHT22;7364;50.870;4.722;2023-02-15T13:05:59;17.80;89.70
14555;DHT22;7364;50.870;4.722;2023-02-15T13:08:28;18.20;88.80
14555;DHT22;7364;50.870;4.722;2023-02-15T13:11:00;17.90;88.40
14555;DHT22;7364;50.870;4.722;2023-02-15T13:13:31;17.60;90.10
14555;DHT22;7364;50.870;4.722;2023-02-15T13:16:03;18.00;89.80
14555;DHT22;7364;50.870;4.722;2023-02-15T13:18:34;18.80;88.90
14555;DHT22;7364;50.870;4.722;2023-02-15T13:21:09;19.50;87.20
14555;DHT22;7364;50.870;4.722;2023-02-15T13:23:39;19.70;86.40
14555;DHT22;7364;50.870;4.722;2023-02-15T13:26:13;19.80;86.00
14555;DHT22;7364;50.870;4.722;2023-02-15T13:28:45;19.30;86.30
14555;DHT22;7364;50.870;4.722;2023-02-15T13:31:15;19.40;86.40
14555;DHT22;7364;50.870;4.722;2023-02-15T13:33:49;18.60;87.40
14555;DHT22;7364;50.870;4.722;2023-02-15T13:36:23;18.20;88.80
14555;DHT22;7364;50.870;4.722;2023-02-15T13:39:01;18.10;89.90
14555;DHT22;7364;50.870;4.722;2023-02-15T13:41:34;18.80;89.10
14555;DHT22;7364;50.870;4.722;2023-02-15T13:44:11;19.20;88.10
14555;DHT22;7364;50.870;4.722;2023-02-15T13:46:50;19.90;86.20
14555;DHT22;7364;50.870;4.722;2023-02-15T13:49:36;20.00;85.30
14555;DHT22;7364;50.870;4.722;2023-02-15T13:52:18;20.10;84.90
14555;DHT22;7364;50.870;4.722;2023-02-15T13:55:06;19.50;85.50
14555;DHT22;7364;50.870;4.722;2023-02-15T13:57:57;18.40;87.60
14555;DHT22;7364;50.870;4.722;2023-02-15T14:00:34;17.70;90.40
14555;DHT22;7364;50.870;4.722;2023-02-15T14:06:24;18.00;90.10
14555;DHT22;7364;50.870;4.722;2023-02-15T14:09:09;17.90;89.80
14555;DHT22;7364;50.870;4.722;2023-02-15T14:11:47;18.20;89.70
14555;DHT22;7364;50.870;4.722;2023-02-15T14:14:41;18.40;89.00
14555;DHT22;7364;50.870;4.722;2023-02-15T14:17:19;18.40;89.60
14555;DHT22;7364;50.870;4.722;2023-02-15T14:19:56;17.70;89.50
14555;DHT22;7364;50.870;4.722;2023-02-15T14:22:30;16.90;90.90
14555;DHT22;7364;50.870;4.722;2023-02-15T14:25:16;16.50;91.40
14555;DHT22;7364;50.870;4.722;2023-02-15T14:27:54;16.30;92.00
14555;DHT22;7364;50.870;4.722;2023-02-15T14:30:29;16.40;92.20
14555;DHT22;7364;50.870;4.722;2023-02-15T14:33:02;16.90;91.80
14555;DHT22;7364;50.870;4.722;2023-02-15T14:35:33;16.90;91.70
14555;DHT22;7364;50.870;4.722;2023-02-15T14:38:06;17.10;91.20
14555;DHT22;7364;50.870;4.722;2023-02-15T14:40:45;17.10;91.30
14555;DHT22;7364;50.870;4.722;2023-02-15T14:43:47;17.00;91.40
14555;DHT22;7364;50.870;4.722;2023-02-15T14:46:23;17.30;91.10
14555;DHT22;7364;50.870;4.722;2023-02-15T14:48:53;17.00;91.30
14555;DHT22;7364;50.870;4.722;2023-02-15T14:51:57;16.60;91.70
14555;DHT22;7364;50.870;4.722;2023-02-15T14:54:53;16.60;91.90
14555;DHT22;7364;50.870;4.722;2023-02-15T14:57:27;16.40;92.20
14555;DHT22;7364;50.870;4.722;2023-02-15T14:59:57;16.60;92.10
14555;DHT22;7364;50.870;4.722;2023-02-15T15:02:30;16.60;92.10
14555;DHT22;7364;50.870;4.722;2023-02-15T15:05:15;16.70;92.30
14555;DHT22;7364;50.870;4.722;2023-02-15T15:07:45;16.80;92.00
14555;DHT22;7364;50.870;4.722;2023-02-15T15:10:38;16.80;92.00
14555;DHT22;7364;50.870;4.722;2023-02-15T15:13:36;16.60;92.20
14555;DHT22;7364;50.870;4.722;2023-02-15T15:16:28;16.10;92.30
14555;DHT22;7364;50.870;4.722;2023-02-15T15:18:57;16.30;92.70
14555;DHT22;7364;50.870;4.722;2023-02-15T15:21:54;16.10;92.90
14555;DHT22;7364;50.870;4.722;2023-02-15T15:24:51;15.90;92.70
14555;DHT22;7364;50.870;4.722;2023-02-15T15:27:46;15.90;93.00
14555;DHT22;7364;50.870;4.722;2023-02-15T15:30:48;16.00;93.00
14555;DHT22;7364;50.870;4.722;2023-02-15T15:33:42;16.10;92.90
14555;DHT22;7364;50.870;4.722;2023-02-15T15:36:29;16.20;92.50
14555;DHT22;7364;50.870;4.722;2023-02-15T15:39:12;16.10;92.70
14555;DHT22;7364;50.870;4.722;2023-02-15T15:41:51;16.10;92.80
14555;DHT22;7364;50.870;4.722;2023-02-15T15:44:56;16.20;92.50
14555;DHT22;7364;50.870;4.722;2023-02-15T15:47:44;16.20;92.60
14555;DHT22;7364;50.870;4.722;2023-02-15T15:50:18;15.90;93.20
14555;DHT22;7364;50.870;4.722;2023-02-15T15:52:51;15.60;93.00
14555;DHT22;7364;50.870;4.722;2023-02-15T15:55:22;15.60;93.30
14555;DHT22;7364;50.870;4.722;2023-02-15T15:57:52;15.60;93.20
14555;DHT22;7364;50.870;4.722;2023-02-15T16:00:35;15.30;93.60
14555;DHT22;7364;50.870;4.722;2023-02-15T16:03:04;14.90;94.10
14555;DHT22;7364;50.870;4.722;2023-02-15T16:05:36;15.00;94.40
14555;DHT22;7364;50.870;4.722;2023-02-15T16:08:05;14.80;94.50
14555;DHT22;7364;50.870;4.722;2023-02-15T16:10:33;14.60;94.70
14555;DHT22;7364;50.870;4.722;2023-02-15T16:13:05;14.50;95.00
14555;DHT22;7364;50.870;4.722;2023-02-15T16:15:36;14.50;94.90
14555;DHT22;7364;50.870;4.722;2023-02-15T16:18:14;14.50;95.00
14555;DHT22;7364;50.870;4.722;2023-02-15T16:20:49;14.30;95.30
14555;DHT22;7364;50.870;4.722;2023-02-15T16:23:34;14.10;95.70
14555;DHT22;7364;50.870;4.722;2023-02-15T16:26:10;14.10;95.60
14555;DHT22;7364;50.870;4.722;2023-02-15T16:28:47;14.10;95.90
14555;DHT22;7364;50.870;4.722;2023-02-15T16:31:16;14.10;96.00
14555;DHT22;7364;50.870;4.722;2023-02-15T16:33:44;14.10;95.90
14555;DHT22;7364;50.870;4.722;2023-02-15T16:36:19;14.00;96.10
14555;DHT22;7364;50.870;4.722;2023-02-15T16:42:01;13.80;96.60
14555;DHT22;7364;50.870;4.722;2023-02-15T16:44:30;13.60;96.80
14555;DHT22;7364;50.870;4.722;2023-02-15T16:46:59;13.60;96.80